Hazardville, Connecticut
Current Conditions -  °F | °C
As of 3:51 AM on Saturday 22 Nov 2014 (Local Time) from KBDL Reporting Station
Clear Clear  
Wind Chill: 21°   Ceiling: Unl
Heat Index: 21°   Visibility: 10mi
Dew Point: 10°   Wind: 0mph
Humidity: 63%   Direction: NA
Pressure: 30.44"   Gusts: NA
Location:  41.9843°N, 72.5534°W
Report Text: KBDL 220851Z 00000KT 10SM CLR M06/M12 A3044 RMK AO2 SLP310 T10611122 58004
Loading
Personal Weather Stations






























Interactive Weather Map New forecast layout! Learn more

10-Day Weather Forecast

Advertisements
Track Severe Weather on mobile